Nearby Nevada METAR Reports

Sorted by Distance from Carson Valley - Minden, Nevada

 

KMEV - Minden, Nevada, USA
Distance from station: SSW 3mi, 5km
Updated: Mon, 15-Jul-2024 1:35am MDT
Few Clouds
Few Clouds
 Wind from ESE
Wind: ESE 7 mph, 11 km/h
Temperature: 55°F, 13°C
Dew Point: 45°F, 7°C
Humidity: 67%
Barometer: 30.28 inHg, 1025.4 hPa
Clouds: Few Clouds
Visibility: 10 miles, 16 km
Cloud details: Few Clouds 6000 ft
2024/07/15 07:35 KMEV 150735Z AUTO 11006KT 10SM FEW060 13/07 A3028 RMK AO2
KCXP - Carson City, Nevada, USA
Distance from station: N 10mi, 16km
Updated: Mon, 15-Jul-2024 1:35am MDT
Clear
Clear
 Wind from calm
Wind: Calm
Temperature: 61°F, 16°C
Dew Point: 46°F, 8°C
Humidity: 59%
Barometer: 30.29 inHg, 1025.7 hPa
Clouds: Clear
Visibility: 10 miles, 16 km
2024/07/15 07:35 KCXP 150735Z AUTO 00000KT 10SM CLR 16/08 A3029 RMK AO2
 
KTVL - South Lake Tahoe, California, USA
Distance from station: WSW 18mi, 29km
Updated: Mon, 15-Jul-2024 12:53am MDT
Clear
Clear
 Wind from calm
Wind: Calm
Temperature: 50°F, 10°C
Dew Point: 46°F, 8°C
Humidity: 88%
Barometer: 30.38 inHg, 1028.8 hPa
Clouds: Clear
Visibility: 10 miles, 16 km
2024/07/15 06:53 KTVL 150653Z AUTO 00000KT 10SM CLR 10/08 A3038 RMK AO2 SLP234 T01000083
KTRK - Truckee Tahoe, California, USA
Distance from station: NW 29mi, 46km
Updated: Mon, 15-Jul-2024 1:35am MDT
Clear
Clear
 Wind from calm
Wind: Calm
Temperature: 52°F, 11°C
Dew Point: 46°F, 8°C
Humidity: 82%
Barometer: 30.37 inHg, 1028.4 hPa
Clouds: Clear
Visibility: 10 miles, 16 km
2024/07/15 07:35 KTRK 150735Z AUTO 00000KT 10SM CLR 11/08 A3037 RMK AO2
 
KRNO - Reno, Nevada, USA
Distance from station: N 32mi, 51km
Updated: Mon, 15-Jul-2024 12:55am MDT
Clear
Clear
 Wind from calm
Wind: Calm
Temperature: 70°F, 21°C
Dew Point: 55°F, 13°C
Humidity: 60%
Barometer: 30.26 inHg, 1024.7 hPa
Clouds: Clear
Visibility: 10 miles, 16 km
2024/07/15 06:55 KRNO 150655Z 00000KT 10SM CLR 21/13 A3026 RMK AO2 SLP195 T02060128
KRTS - Reno/Stead, Nevada, USA
Distance from station: NNW 44mi, 71km
Updated: Mon, 15-Jul-2024 1:35am MDT
Clear
Clear
 Wind from N
Wind: N 5 mph, 7 km/h
Temperature: 57°F, 14°C
Dew Point: 52°F, 11°C
Humidity: 82%
Barometer: 30.30 inHg, 1026.1 hPa
Clouds: Clear
Visibility: 10 miles, 16 km
2024/07/15 07:35 KRTS 150735Z AUTO 35004KT 10SM CLR 14/11 A3030 RMK AO2
 
KBAN - Bridgeport(Mcmwt, California, USA
Distance from station: SSE 49mi, 79km
Updated: Mon, 15-Jul-2024 12:52am MDT
Clear
Clear
 
Temperature: 55°F, 13°C
Dew Point: 43°F, 6°C
Humidity: 63%
Barometer: 30.42 inHg, 1030.1 hPa
Clouds: Clear
Visibility: 10 miles, 16 km
2024/07/15 06:52 KBAN 150652Z AUTO 10SM CLR 13/06 A3042 RMK AO2 SLP200 T01330056 PWINO $
KBLU - Emigrant Gap, California, USA
Distance from station: WNW 55mi, 89km
Updated: Mon, 15-Jul-2024 12:52am MDT
Clear
Clear
 Wind from varies
Wind: varies 6 mph, 9 km/h
Temperature: 72°F, 22°C
Dew Point: 46°F, 8°C
Humidity: 41%
Barometer: 30.29 inHg, 1025.7 hPa
Clouds: Clear
Visibility: 10 miles, 16 km
2024/07/15 06:52 KBLU 150652Z AUTO VRB05KT 10SM CLR 22/08 A3029 RMK AO2 SLP149 T02220078
 
KPVF - Placerville, California, USA
Distance from station: WSW 60mi, 96km
Updated: Mon, 15-Jul-2024 1:35am MDT
Clear
Clear
 Wind from calm
Wind: Calm
Temperature: 77°F, 25°C
Dew Point: 45°F, 7°C
Humidity: 32%
Barometer: 30.08 inHg, 1018.6 hPa
Clouds: Clear
Visibility: 10 miles, 16 km
2024/07/15 07:35 KPVF 150735Z AUTO 00000KT 10SM CLR 25/07 A3008 RMK AO1
KNFL - Fallon Nas, Nevada, USA
Distance from station: ENE 61mi, 97km
Updated: Mon, 15-Jul-2024 12:56am MDT
Few Clouds
Few Clouds
 Wind from calm
Wind: Calm
Temperature: 66°F, 19°C
Dew Point: 52°F, 11°C
Humidity: 60%
Barometer: 30.20 inHg, 1022.7 hPa
Clouds: Few Clouds
Visibility: 10 miles, 16 km
Cloud details: Few Clouds 12000 ft
2024/07/15 06:56 KNFL 150656Z AUTO 00000KT 10SM FEW120 19/11 A3020 RMK AO2 SLP188 T01940111
 
KHTH - Hawthorne, Nevada, USA
Distance from station: ESE 68mi, 109km
Updated: Mon, 15-Jul-2024 1:35am MDT
Clear
Clear
 Wind from calm
Wind: Calm
Temperature: 73°F, 23°C
Dew Point: 54°F, 12°C
Humidity: 50%
Barometer: 30.23 inHg, 1023.7 hPa
Clouds: Clear
Visibility: 10 miles, 16 km
2024/07/15 07:35 KHTH 150735Z AUTO 00000KT 10SM CLR 23/12 A3023 RMK A01
KGOO - Grass Valley, California, USA
Distance from station: W 70mi, 112km
Updated: Mon, 15-Jul-2024 1:35am MDT
Clear
Clear
 Wind from calm
Wind: Calm
Temperature: 77°F, 25°C
Dew Point: 50°F, 10°C
Humidity: 39%
Barometer: 30.10 inHg, 1019.3 hPa
Clouds: Clear
Visibility: 10 miles, 16 km
2024/07/15 07:35 KGOO 150735Z AUTO 00000KT 10SM CLR 25/10 A3010 RMK A01
 
KAUN - Auburn Muni, California, USA
Distance from station: W 73mi, 118km
Updated: Mon, 15-Jul-2024 1:35am MDT
Clear
Clear
 Wind from calm
Wind: Calm
Temperature: 72°F, 22°C
Dew Point: 61°F, 16°C
Humidity: 69%
Barometer: 30.00 inHg, 1015.9 hPa
Clouds: Clear
Visibility: 10 miles, 16 km
2024/07/15 07:35 KAUN 150735Z AUTO 00000KT 10SM CLR 22/16 A3000 RMK A01
KO22 - Columbia, California, USA
Distance from station: SSW 79mi, 127km
Updated: Mon, 15-Jul-2024 1:35am MDT
Clear
Clear
 Wind from calm
Wind: Calm
Temperature: 73°F, 23°C
Dew Point: 52°F, 11°C
Humidity: 47%
Barometer: 30.02 inHg, 1016.6 hPa
Clouds: Clear
Visibility: 10 miles, 16 km
2024/07/15 07:35 KO22 150735Z AUTO 00000KT 10SM CLR 23/11 A3002 RMK A01
 
KLHM - Lincoln, California, USA
Distance from station: W 88mi, 141km
Updated: Mon, 15-Jul-2024 1:35am MDT
Clear
Clear
 Wind from SSE
Wind: SSE 8 mph, 13 km/h
Temperature: 72°F, 22°C
Dew Point: 54°F, 12°C
Humidity: 53%
Barometer: 29.93 inHg, 1013.5 hPa
Clouds: Clear
Visibility: 10 miles, 16 km
2024/07/15 07:35 KLHM 150735Z AUTO 16007KT 10SM CLR 22/12 A2993 RMK AO1
KBAB - Beale Afb/Marysv, California, USA
Distance from station: W 91mi, 147km
Updated: Mon, 15-Jul-2024 12:55am MDT
Clear
Clear
 Wind from SSE
Wind: SSE 7 mph, 11 km/h
Temperature: 75°F, 24°C
Dew Point: 61°F, 16°C
Humidity: 61%
Barometer: 29.91 inHg, 1012.9 hPa
Clouds: Clear
Visibility: 10 miles, 16 km
2024/07/15 06:55 KBAB 150655Z AUTO 15006KT 10SM CLR 24/16 A2991 RMK AO2 SLP131 T02430160 $
 
KMHR - Mather Field, California, USA
Distance from station: WSW 91mi, 147km
Updated: Mon, 15-Jul-2024 1:35am MDT
Clear
Clear
 Wind from SE
Wind: SE 7 mph, 11 km/h
Temperature: 66°F, 19°C
Dew Point: 54°F, 12°C
Humidity: 64%
Barometer: 29.94 inHg, 1013.9 hPa
Clouds: Clear
Visibility: 10 miles, 16 km
2024/07/15 07:35 KMHR 150735Z AUTO 14006KT 10SM CLR 19/12 A2994 RMK A01
KLOL - Lovelock, Nevada, USA
Distance from station: NE 94mi, 151km
Updated: Mon, 15-Jul-2024 12:53am MDT
Clear
Clear
 Wind from SE
Wind: SE 9 mph, 15 km/h
Temperature: 64°F, 18°C
Dew Point: 55°F, 13°C
Humidity: 73%
Barometer: 30.19 inHg, 1022.4 hPa
Clouds: Clear
Visibility: 9 miles, 14 km
2024/07/15 06:53 KLOL 150653Z AUTO 13008KT 9SM CLR 18/13 A3019 RMK AO2 SLP187 T01830133
 
KMCC - Mcclellan Afb, California, USA
Distance from station: WSW 94mi, 151km
Updated: Mon, 15-Jul-2024 1:30am MDT
Clear
Clear
 Wind from SE
Wind: SE 12 mph, 19 km/h
Temperature: 70°F, 21°C
Dew Point: 54°F, 12°C
Humidity: 57%
Barometer: 29.93 inHg, 1013.5 hPa
Clouds: Clear
Visibility: 10 miles, 16 km
2024/07/15 07:30 KMCC 150730Z AUTO 14010KT 10SM CLR 21/12 A2993 RMK AO2 PWINO
KMYV - Marysville, California, USA
Distance from station: W 99mi, 159km
Updated: Mon, 15-Jul-2024 12:53am MDT
Clear
Clear
 Wind from S
Wind: S 6 mph, 9 km/h
Temperature: 75°F, 24°C
Dew Point: 61°F, 16°C
Humidity: 61%
Barometer: 29.92 inHg, 1013.2 hPa
Clouds: Clear
Visibility: 10 miles, 16 km
2024/07/15 06:53 KMYV 150653Z AUTO 18005KT 10SM CLR 24/16 A2992 RMK AO2 SLP135 T02390156
 
KSVE - Susanville Muni, California, USA
Distance from station: NNW 102mi, 164km
Updated: Fri, 26-Apr-2024 12:55am MDT
NOT Current
Light drizzle, Overcast
Light drizzle, Overcast
 Wind from W
Wind: W 14 mph, 22 km/h
Temperature: 46°F, 8°C
Wind Chill: 40°F, 4°C
Dew Point: 39°F, 4°C
Humidity: 76%
Barometer: 29.92 inHg, 1013.2 hPa
Summary: Light Drizzle
Clouds: Overcast
Visibility: 10 miles, 16 km
Cloud details: Few Clouds 4700 ft
Mostly cloudy 6000 ft
Overcast 7500 ft
2024/04/26 06:55 KSVE 260655Z AUTO 26012KT 10SM -DZ FEW047 BKN060 OVC075 08/04 A2992 RMK AO2
KSAC - Sacramento, California, USA
Distance from station: WSW 103mi, 165km
Updated: Mon, 15-Jul-2024 12:53am MDT
Clear
Clear
 Wind from S
Wind: S 5 mph, 7 km/h
Temperature: 66°F, 19°C
Dew Point: 54°F, 12°C
Humidity: 64%
Barometer: 29.94 inHg, 1013.9 hPa
Clouds: Clear
Visibility: 10 miles, 16 km
2024/07/15 06:53 KSAC 150653Z AUTO 19004KT 10SM CLR 19/12 A2994 RMK AO2 SLP136 T01940117
 
KSMF - Sacramento/Metro, California, USA
Distance from station: WSW 104mi, 167km
Updated: Mon, 15-Jul-2024 12:53am MDT
Clear
Clear
 Wind from SE
Wind: SE 10 mph, 17 km/h
Temperature: 72°F, 22°C
Dew Point: 54°F, 12°C
Humidity: 53%
Barometer: 29.92 inHg, 1013.2 hPa
Clouds: Clear
Visibility: 10 miles, 16 km
2024/07/15 06:53 KSMF 150653Z 14009KT 10SM CLR 22/12 A2992 RMK AO2 SLP132 T02170122
KOVE - Oroville, California, USA
Distance from station: WNW 106mi, 171km
Updated: Mon, 15-Jul-2024 12:53am MDT
Clear
Clear
 Wind from calm
Wind: Calm
Temperature: 81°F, 27°C
Dew Point: 52°F, 11°C
Humidity: 37%
Barometer: 29.92 inHg, 1013.2 hPa
Clouds: Clear
Visibility: 10 miles, 16 km
2024/07/15 06:53 KOVE 150653Z AUTO 00000KT 10SM CLR 27/11 A2992 RMK AO2 SLP132 T02670111
 
KMMH - Mammoth/June Lak, California, USA
Distance from station: SSE 110mi, 177km
Updated: Mon, 15-Jul-2024 1:35am MDT
Clear
Clear
 Wind from N
Wind: N 3 mph, 6 km/h
Temperature: 52°F, 11°C
Dew Point: 46°F, 8°C
Humidity: 82%
Barometer: 30.46 inHg, 1031.5 hPa
Clouds: Clear
Visibility: 10 miles, 16 km
2024/07/15 07:35 KMMH 150735Z AUTO 01003KT 10SM CLR 11/08 A3046 RMK AO2 T01110080
KSCK - Stockton, California, USA
Distance from station: SW 114mi, 183km
Updated: Mon, 15-Jul-2024 12:55am MDT
Clear
Clear
 Wind from NNW
Wind: NNW 7 mph, 11 km/h
Temperature: 70°F, 21°C
Dew Point: 55°F, 13°C
Humidity: 60%
Barometer: 29.94 inHg, 1013.9 hPa
Clouds: Clear
Visibility: 10 miles, 16 km
2024/07/15 06:55 KSCK 150655Z 34006KT 10SM CLR 21/13 A2994 RMK AO2 SLP140 T02110128
 
KEDU - Davis, California, USA
Distance from station: WSW 116mi, 187km
Updated: Sat, 13-Jul-2024 8:20am MDT
NOT Current
Clear
Clear
 
Temperature: 66°F, 19°C
Dew Point: 55°F, 13°C
Humidity: 68%
Barometer: 29.84 inHg, 1010.5 hPa
Clouds: Clear
Visibility: 10 miles, 16 km
2024/07/13 14:20 KEDU 131420Z AUTO 10SM CLR 19/13 A2984 RMK AO1
KMOD - Modesto, California, USA
Distance from station: SW 119mi, 191km
Updated: Mon, 15-Jul-2024 12:53am MDT
Clear
Clear
 Wind from N
Wind: N 7 mph, 11 km/h
Temperature: 75°F, 24°C
Dew Point: 54°F, 12°C
Humidity: 47%
Barometer: 29.93 inHg, 1013.5 hPa
Clouds: Clear
Visibility: 10 miles, 16 km
2024/07/15 06:53 KMOD 150653Z AUTO 35006KT 10SM CLR 24/12 A2993 RMK AO2 SLP134 T02440122
 
KMER - Merced/Castle Af, California, USA
Distance from station: SSW 123mi, 198km
Updated: Sun, 14-Jul-2024 8:55pm MDT
NOT Current
Clear
Clear
 Wind from NNW
Wind: NNW 12 mph, 19 km/h
Temperature: 91°F, 33°C
Dew Point: 59°F, 15°C
Humidity: 34%
Barometer: 29.87 inHg, 1011.5 hPa
Clouds: Clear
Visibility: 10 miles, 16 km
2024/07/15 02:55 KMER 150255Z 33010KT 10SM CLR 33/15 A2987
KCIC - Chico Municipal, California, USA
Distance from station: WNW 124mi, 199km
Updated: Mon, 15-Jul-2024 1:35am MDT
Clear
Clear
 Wind from calm
Wind: Calm
Temperature: 84°F, 29°C
Dew Point: 52°F, 11°C
Humidity: 33%
Barometer: 29.93 inHg, 1013.5 hPa
Clouds: Clear
Visibility: 10 miles, 16 km
2024/07/15 07:35 KCIC 150735Z AUTO 00000KT 10SM CLR 29/11 A2993 RMK AO1
 
KMCE - Merced, California, USA
Distance from station: SSW 128mi, 207km
Updated: Mon, 15-Jul-2024 12:53am MDT
Clear
Clear
 Wind from NNW
Wind: NNW 8 mph, 13 km/h
Temperature: 79°F, 26°C
Dew Point: 55°F, 13°C
Humidity: 45%
Barometer: 29.92 inHg, 1013.2 hPa
Clouds: Clear
Visibility: 10 miles, 16 km
2024/07/15 06:53 KMCE 150653Z AUTO 33007KT 10SM CLR 26/13 A2992 RMK AO2 SLP129 T02610128
KVCB - Vacaville, California, USA
Distance from station: WSW 128mi, 207km
Updated: Tue, 02-Jul-2024 4:53pm MDT
NOT Current
Clear
Clear
 Wind from NNE
Wind: NNE 9 mph, 15 km/h
Temperature: 108°F, 42°C
Dew Point: 41°F, 5°C
Humidity: 10%
Barometer: 29.76 inHg, 1007.8 hPa
Clouds: Clear
Visibility: 10 miles, 16 km
2024/07/02 22:53 KVCB 022253Z AUTO 03008KT 10SM CLR 42/05 A2976 RMK AO2 SLP074 T04220050
 
KSUU - Travis Afb/Fairf, California, USA
Distance from station: WSW 130mi, 209km
Updated: Mon, 15-Jul-2024 12:55am MDT
Clear
Clear
 Wind from WSW
Wind: WSW 25 mph, 41 km/h, Gust: 32 mph, 52 km/h
Temperature: 61°F, 16°C
Dew Point: 52°F, 11°C
Humidity: 72%
Barometer: 29.93 inHg, 1013.5 hPa
Clouds: Clear
Visibility: 10 miles, 16 km
2024/07/15 06:55 KSUU 150655Z AUTO 24022G28KT 10SM CLR 16/11 A2993 RMK AO2 PK WND 23030/23 SLP142 T01630110 $
KBIH - Bishop, California, USA
Distance from station: SE 137mi, 221km
Updated: Mon, 15-Jul-2024 12:56am MDT
Mostly cloudy
Mostly cloudy
 Wind from NNW
Wind: NNW 8 mph, 13 km/h
Temperature: 75°F, 24°C
Dew Point: 52°F, 11°C
Humidity: 44%
Barometer: 30.23 inHg, 1023.7 hPa
Clouds: Mostly cloudy
Visibility: 10 miles, 16 km
Cloud details: Mostly cloudy 11000 ft
2024/07/15 06:56 KBIH 150656Z AUTO 33007KT 10SM BKN110 24/11 A3023 RMK AO2 RAE30 SLP178 P0000 T02390111
 
KMAE - Madera, California, USA
Distance from station: S 144mi, 231km
Updated: Mon, 15-Jul-2024 12:53am MDT
Clear
Clear
 Wind from NW
Wind: NW 8 mph, 13 km/h
Temperature: 81°F, 27°C
Heat Index: 81°F, 27°C
Dew Point: 59°F, 15°C
Humidity: 48%
Barometer: 29.93 inHg, 1013.5 hPa
Clouds: Clear
Visibility: 10 miles, 16 km
2024/07/15 06:53 KMAE 150653Z AUTO 32007KT 10SM CLR 27/15 A2993 RMK AO2 SLP131 T02720150
KCCR - Concord, California, USA
Distance from station: WSW 145mi, 233km
Updated: Mon, 15-Jul-2024 12:53am MDT
Clear
Clear
 Wind from W
Wind: W 10 mph, 17 km/h
Temperature: 63°F, 17°C
Dew Point: 54°F, 12°C
Humidity: 73%
Barometer: 30.01 inHg, 1016.3 hPa
Clouds: Clear
Visibility: 10 miles, 16 km
2024/07/15 06:53 KCCR 150653Z AUTO 26009KT 10SM CLR 17/12 A3001 RMK AO2 SLP148 T01670117
 
KLVK - Livermore, California, USA
Distance from station: SW 146mi, 236km
Updated: Mon, 15-Jul-2024 12:53am MDT
Clear
Clear
 Wind from WNW
Wind: WNW 12 mph, 19 km/h
Temperature: 61°F, 16°C
Dew Point: 54°F, 12°C
Humidity: 77%
Barometer: 30.02 inHg, 1016.6 hPa
Clouds: Clear
Visibility: 10 miles, 16 km
2024/07/15 06:53 KLVK 150653Z AUTO 29010KT 10SM CLR 16/12 A3002 RMK AO2 SLP162 T01560117
KAPC - Napa, California, USA
Distance from station: WSW 150mi, 241km
Updated: Mon, 15-Jul-2024 12:54am MDT
Clear
Clear
 Wind from WSW
Wind: WSW 8 mph, 13 km/h
Temperature: 57°F, 14°C
Dew Point: 52°F, 11°C
Humidity: 82%
Barometer: 30.02 inHg, 1016.6 hPa
Clouds: Clear
Visibility: 10 miles, 16 km
2024/07/15 06:54 KAPC 150654Z AUTO 25007KT 10SM CLR 14/11 A3002 RMK AO2 SLP158 T01440111
 
KRBL - Red Bluff, California, USA
Distance from station: WNW 155mi, 249km
Updated: Mon, 15-Jul-2024 12:54am MDT
Clear
Clear
 Wind from N
Wind: N 7 mph, 11 km/h
Temperature: 79°F, 26°C
Dew Point: 55°F, 13°C
Humidity: 45%
Barometer: 29.93 inHg, 1013.5 hPa
Clouds: Clear
Visibility: 10 miles, 16 km
2024/07/15 06:54 KRBL 150654Z AUTO 36006KT 10SM CLR 26/13 A2993 RMK AO2 SLP129 T02560133
KFAT - Fresno, California, USA
Distance from station: S 156mi, 251km
Updated: Mon, 15-Jul-2024 12:53am MDT
Clear
Clear
 Wind from WNW
Wind: WNW 10 mph, 17 km/h
Temperature: 88°F, 31°C
Dew Point: 57°F, 14°C
Humidity: 35%
Barometer: 29.92 inHg, 1013.2 hPa
Clouds: Clear
Visibility: 10 miles, 16 km
2024/07/15 06:53 KFAT 150653Z 29009KT 10SM CLR 31/14 A2992 RMK AO2 SLP126 T03060144
 
KTPH - Tonopah, Nevada, USA
Distance from station: ESE 158mi, 254km
Updated: Mon, 15-Jul-2024 12:56am MDT
Clear
Clear
 Wind from N
Wind: N 6 mph, 9 km/h
Temperature: 72°F, 22°C
Dew Point: 43°F, 6°C
Humidity: 36%
Barometer: 30.29 inHg, 1025.7 hPa
Clouds: Clear
Visibility: 10 miles, 16 km
2024/07/15 06:56 KTPH 150656Z AUTO 35005KT 10SM CLR 22/06 A3029 RMK AO2 SLP166 T02220061
KFCH - Fresno Chandler, California, USA
Distance from station: S 161mi, 258km
Updated: Mon, 15-Jul-2024 1:35am MDT
Clear
Clear
 Wind from NW
Wind: NW 9 mph, 15 km/h, Gust: 15 mph, 24 km/h
Temperature: 82°F, 28°C
Heat Index: 82°F, 28°C
Dew Point: 59°F, 15°C
Humidity: 45%
Barometer: 29.93 inHg, 1013.5 hPa
Clouds: Clear
Visibility: 10 miles, 16 km
2024/07/15 07:35 KFCH 150735Z AUTO 32008G13KT 10SM CLR 28/15 A2993 RMK A01
 
KHWD - Hayward, California, USA
Distance from station: SW 161mi, 259km
Updated: Mon, 15-Jul-2024 12:54am MDT
Mostly cloudy
Mostly cloudy
 Wind from NW
Wind: NW 8 mph, 13 km/h
Temperature: 61°F, 16°C
Dew Point: 54°F, 12°C
Humidity: 77%
Barometer: 30.04 inHg, 1017.3 hPa
Clouds: Mostly cloudy
Visibility: 10 miles, 16 km
Cloud details: Mostly cloudy 1200 ft
2024/07/15 06:54 KHWD 150654Z AUTO 32007KT 10SM BKN012 16/12 A3004 RMK AO2 SLP182 T01610117
KOAK - Oakland, California, USA
Distance from station: SW 164mi, 264km
Updated: Mon, 15-Jul-2024 12:53am MDT
Few Clouds
Few Clouds
 Wind from W
Wind: W 10 mph, 17 km/h
Temperature: 61°F, 16°C
Dew Point: 55°F, 13°C
Humidity: 83%
Barometer: 30.05 inHg, 1017.6 hPa
Clouds: Few Clouds
Visibility: 10 miles, 16 km
Cloud details: Few Clouds 1100 ft
2024/07/15 06:53 KOAK 150653Z 28009KT 10SM FEW011 16/13 A3005 RMK AO2 SLP174 T01560133
 
KWMC - Winnemucca, Nevada, USA
Distance from station: NE 164mi, 264km
Updated: Mon, 15-Jul-2024 12:56am MDT
Partly cloudy
Partly cloudy
 Wind from S
Wind: S 8 mph, 13 km/h
Temperature: 72°F, 22°C
Dew Point: 48°F, 9°C
Humidity: 44%
Barometer: 30.20 inHg, 1022.7 hPa
Clouds: Partly cloudy
Visibility: 10 miles, 16 km
Cloud details: Partly cloudy 8500 ft
2024/07/15 06:56 KWMC 150656Z AUTO 18007KT 10SM SCT085 22/09 A3020 RMK AO2 SLP170 T02170094
KDVO - Novato/Gnoss Fld, California, USA
Distance from station: WSW 165mi, 265km
Updated: Mon, 15-Jul-2024 1:35am MDT
Clear
Clear
 Wind from calm
Wind: Calm
Temperature: 55°F, 13°C
Dew Point: 55°F, 13°C
Humidity: 100%
Barometer: 30.03 inHg, 1016.9 hPa
Clouds: Clear
Visibility: 10 miles, 16 km
2024/07/15 07:35 KDVO 150735Z AUTO 00000KT 10SM CLR 13/13 A3003 RMK AO2
 
KO69 - Petaluma, California, USA
Distance from station: WSW 165mi, 265km
Updated: Mon, 15-Jul-2024 1:35am MDT
Mist, Overcast
Mist, Overcast
 Wind from W
Wind: W 7 mph, 11 km/h
Temperature: 54°F, 12°C
Dew Point: 54°F, 12°C
Humidity: 100%
Barometer: 30.05 inHg, 1017.6 hPa
Summary: Mist
Clouds: Overcast
Visibility: 3 miles, 5 km
Cloud details: Overcast 800 ft
2024/07/15 07:35 KO69 150735Z AUTO 28006KT 3SM BR OVC008 12/12 A3005 RMK A01
KRHV - San Jose/Reid, California, USA
Distance from station: SW 165mi, 265km
Updated: Sun, 14-Jul-2024 10:47pm MDT
NOT Current
Clear
Clear
 Wind from NW
Wind: NW 7 mph, 11 km/h
Temperature: 64°F, 18°C
Dew Point: 55°F, 13°C
Humidity: 73%
Barometer: 30.04 inHg, 1017.3 hPa
Clouds: Clear
Visibility: 10 miles, 16 km
2024/07/15 04:47 KRHV 150447Z 31006KT 10SM SKC 18/13 A3004 RMK LAST
 
KSJC - San Jose, California, USA
Distance from station: SW 166mi, 267km
Updated: Mon, 15-Jul-2024 12:53am MDT
Few Clouds
Few Clouds
 Wind from N
Wind: N 6 mph, 9 km/h
Temperature: 63°F, 17°C
Dew Point: 54°F, 12°C
Humidity: 73%
Barometer: 30.04 inHg, 1017.3 hPa
Clouds: Few Clouds
Visibility: 10 miles, 16 km
Cloud details: Few Clouds 3000 ft
Few Clouds 8000 ft
2024/07/15 06:53 KSJC 150653Z 36005KT 10SM FEW030 FEW080 17/12 A3004 RMK AO2 SLP172 T01720122
KE16 - San Martin, California, USA
Distance from station: SW 169mi, 273km
Updated: Mon, 15-Jul-2024 1:35am MDT
Mostly cloudy
Mostly cloudy
 Wind from SE
Wind: SE 6 mph, 9 km/h
Temperature: 57°F, 14°C
Dew Point: 55°F, 13°C
Humidity: 94%
Barometer: 30.07 inHg, 1018.3 hPa
Clouds: Mostly cloudy
Visibility: 10 miles, 16 km
Cloud details: Mostly cloudy 6000 ft
2024/07/15 07:35 KE16 150735Z AUTO 14005KT 10SM BKN060 14/13 A3007 RMK AO2 PWINO PNO
 
KPAO - Palo Alto, California, USA
Distance from station: SW 169mi, 273km
Updated: Sun, 14-Jul-2024 9:47pm MDT
NOT Current
Clear
Clear
 Wind from NNW
Wind: NNW 13 mph, 20 km/h
Temperature: 63°F, 17°C
Dew Point: 55°F, 13°C
Humidity: 77%
Barometer: 30.01 inHg, 1016.3 hPa
Clouds: Clear
Visibility: 10 miles, 16 km
2024/07/15 03:47 KPAO 150347Z 34011KT 10SM SKC 17/13 A3001 RMK LAST
KNUQ - Moffett Nas/Mtn, California, USA
Distance from station: SW 170mi, 273km
Updated: Mon, 15-Jul-2024 1:35am MDT
Overcast
Overcast
 Wind from NE
Wind: NE 5 mph, 7 km/h
Temperature: 61°F, 16°C
Dew Point: 55°F, 13°C
Humidity: 83%
Barometer: 30.04 inHg, 1017.3 hPa
Clouds: Overcast
Visibility: 10 miles, 16 km
Cloud details: Overcast 1400 ft
2024/07/15 07:35 KNUQ 150735Z AUTO 04004KT 10SM OVC014 16/13 A3004 RMK AO2
 
KRDD - Redding, California, USA
Distance from station: NW 171mi, 275km
Updated: Mon, 15-Jul-2024 12:53am MDT
Clear
Clear
 Wind from N
Wind: N 3 mph, 6 km/h
Temperature: 81°F, 27°C
Dew Point: 48°F, 9°C
Humidity: 32%
Barometer: 29.93 inHg, 1013.5 hPa
Clouds: Clear
Visibility: 10 miles, 16 km
2024/07/15 06:53 KRDD 150653Z AUTO 35003KT 10SM CLR 27/09 A2993 RMK AO2 SLP128 T02720089
KSTS - Santa Rosa, California, USA
Distance from station: WSW 171mi, 275km
Updated: Mon, 15-Jul-2024 12:53am MDT
Clear
Clear
 Wind from SSE
Wind: SSE 3 mph, 6 km/h
Temperature: 55°F, 13°C
Dew Point: 54°F, 12°C
Humidity: 94%
Barometer: 30.04 inHg, 1017.3 hPa
Clouds: Clear
Visibility: 10 miles, 16 km
2024/07/15 06:53 KSTS 150653Z AUTO 15003KT 10SM CLR 13/12 A3004 RMK AO2 SLP166 T01280117 $
 
KSQL - San Carlos Airpo, California, USA
Distance from station: SW 173mi, 278km
Updated: Mon, 15-Jul-2024 1:35am MDT
Clear
Clear
 Wind from NW
Wind: NW 3 mph, 6 km/h
Temperature: 59°F, 15°C
Dew Point: 55°F, 13°C
Humidity: 88%
Barometer: 30.05 inHg, 1017.6 hPa
Clouds: Clear
Visibility: 9 miles, 14 km
2024/07/15 07:35 KSQL 150735Z AUTO 31003KT 9SM CLR 15/13 A3005 RMK AO2
KCVH - Hollister Muni, California, USA
Distance from station: SSW 174mi, 280km
Updated: Mon, 15-Jul-2024 1:35am MDT
Mostly cloudy
Mostly cloudy
 Wind from W
Wind: W 8 mph, 13 km/h
Temperature: 57°F, 14°C
Dew Point: 54°F, 12°C
Humidity: 88%
Barometer: 30.06 inHg, 1017.9 hPa
Clouds: Mostly cloudy
Visibility: 10 miles, 16 km
Cloud details: Mostly cloudy 1100 ft
2024/07/15 07:35 KCVH 150735Z AUTO 26007KT 10SM BKN011 14/12 A3006 RMK A01
 
KSFO - San Francisco, California, USA
Distance from station: SW 174mi, 280km
Updated: Mon, 15-Jul-2024 12:56am MDT
Few Clouds
Few Clouds
 Wind from W
Wind: W 13 mph, 20 km/h
Temperature: 57°F, 14°C
Dew Point: 54°F, 12°C
Humidity: 88%
Barometer: 30.04 inHg, 1017.3 hPa
Clouds: Few Clouds
Visibility: 10 miles, 16 km
Cloud details: Few Clouds 900 ft
2024/07/15 06:56 KSFO 150656Z 27011KT 10SM FEW009 14/12 A3004 RMK AO2 SLP173 T01390117
KAAT - Alturas, California, USA
Distance from station: NNW 175mi, 281km
Updated: Mon, 15-Jul-2024 12:55am MDT
Few Clouds
Few Clouds
 Wind from calm
Wind: Calm
Temperature: 70°F, 21°C
Dew Point: 50°F, 10°C
Humidity: 50%
Barometer: 30.22 inHg, 1023.4 hPa
Clouds: Few Clouds
Visibility: 10 miles, 16 km
Cloud details: Few Clouds 10000 ft
2024/07/15 06:55 KAAT 150655Z AUTO 00000KT 10SM FEW100 21/10 A3022 RMK AO2 SLP183 T02110100
 
KBAM - Battle Mtn (vor), Nevada, USA
Distance from station: NE 182mi, 294km
Updated: Mon, 15-Jul-2024 1:35am MDT
Clear
Clear
 Wind from E
Wind: E 3 mph, 6 km/h
Temperature: 64°F, 18°C
Dew Point: 59°F, 15°C
Humidity: 83%
Barometer: 30.25 inHg, 1024.4 hPa
Clouds: Clear
Visibility: 10 miles, 16 km
2024/07/15 07:35 KBAM 150735Z AUTO 08003KT 10SM CLR 18/15 A3025 RMK AO1
KHAF - Half Moon Bay, California, USA
Distance from station: SW 184mi, 296km
Updated: Mon, 15-Jul-2024 1:35am MDT
Overcast
Overcast
 Wind from calm
Wind: Calm
Temperature: 57°F, 14°C
Dew Point: 55°F, 13°C
Humidity: 94%
Barometer: 30.06 inHg, 1017.9 hPa
Clouds: Overcast
Visibility: 10 miles, 16 km
Cloud details: Overcast 800 ft
2024/07/15 07:35 KHAF 150735Z AUTO 00000KT 10SM OVC008 14/13 A3006 RMK AO2
 
KWVI - Watsonville, California, USA
Distance from station: SW 184mi, 296km
Updated: Mon, 15-Jul-2024 12:53am MDT
Overcast
Overcast
 Wind from WSW
Wind: WSW 3 mph, 6 km/h
Temperature: 57°F, 14°C
Dew Point: 54°F, 12°C
Humidity: 88%
Barometer: 30.07 inHg, 1018.3 hPa
Clouds: Overcast
Visibility: 10 miles, 16 km
Cloud details: Overcast 700 ft
2024/07/15 06:53 KWVI 150653Z AUTO 24003KT 10SM OVC007 14/12 A3007 RMK AO2 SLP181 T01390122
KUKI - Ukiah, California, USA
Distance from station: W 187mi, 300km
Updated: Mon, 15-Jul-2024 12:56am MDT
Clear
Clear
 Wind from SSE
Wind: SSE 6 mph, 9 km/h
Temperature: 72°F, 22°C
Dew Point: 54°F, 12°C
Humidity: 53%
Barometer: 30.00 inHg, 1015.9 hPa
Clouds: Clear
Visibility: 10 miles, 16 km
2024/07/15 06:56 KUKI 150656Z AUTO 16005KT 10SM CLR 22/12 A3000 RMK AO2 SLP151 T02170117
 
KHJO - Hanford, California, USA
Distance from station: S 188mi, 303km
Updated: Mon, 15-Jul-2024 12:53am MDT
Clear
Clear
 Wind from NW
Wind: NW 9 mph, 15 km/h
Temperature: 88°F, 31°C
Heat Index: 89°F, 32°C
Dew Point: 63°F, 17°C
Humidity: 43%
Barometer: 29.92 inHg, 1013.2 hPa
Clouds: Clear
Visibility: 10 miles, 16 km
2024/07/15 06:53 KHJO 150653Z AUTO 31008KT 10SM CLR 31/17 A2992 RMK AO2 SLP131 T03060172
KNLC - Lemoore Nas/Reev, California, USA
Distance from station: S 188mi, 303km
Updated: Mon, 15-Jul-2024 12:56am MDT
Clear
Clear
 Wind from WNW
Wind: WNW 9 mph, 15 km/h
Temperature: 84°F, 29°C
Heat Index: 84°F, 29°C
Dew Point: 59°F, 15°C
Humidity: 43%
Barometer: 29.92 inHg, 1013.2 hPa
Clouds: Clear
Visibility: 10 miles, 16 km
2024/07/15 06:56 KNLC 150656Z AUTO 29008KT 10SM CLR 29/15 A2992 RMK AO2 SLP130 T02890150
 
KVIS - Visalia Muni, California, USA
Distance from station: S 189mi, 304km
Updated: Mon, 15-Jul-2024 12:56am MDT
Clear
Clear
 Wind from WNW
Wind: WNW 9 mph, 15 km/h
Temperature: 86°F, 30°C
Heat Index: 88°F, 31°C
Dew Point: 64°F, 18°C
Humidity: 49%
Barometer: 29.92 inHg, 1013.2 hPa
Clouds: Clear
Visibility: 10 miles, 16 km
2024/07/15 06:56 KVIS 150656Z AUTO 30008KT 10SM CLR 30/18 A2992 RMK AO2 RAE24 SLP130 P0000 T03000183
KSNS - Salinas, California, USA
Distance from station: SSW 193mi, 311km
Updated: Sun, 14-Jul-2024 7:53pm MDT
NOT Current
Overcast
Overcast
 Wind from NW
Wind: NW 13 mph, 20 km/h
Temperature: 61°F, 16°C
Dew Point: 54°F, 12°C
Humidity: 77%
Barometer: 30.03 inHg, 1016.9 hPa
Clouds: Overcast
Visibility: 10 miles, 16 km
Cloud details: Overcast 1200 ft
2024/07/15 01:53 KSNS 150153Z 32011KT 10SM OVC012 16/12 A3003 RMK AO2 SLP177 T01610122
 
K05U - Eureka, Nevada, USA
Distance from station: ENE 203mi, 326km
Updated: Mon, 15-Jul-2024 1:30am MDT

 Wind from calm
Wind: Calm
Temperature: 54°F, 12°C
Dew Point: 45°F, 7°C
Humidity: 72%
Barometer: 30.35 inHg, 1027.8 hPa
Visibility: 10 miles, 16 km
2024/07/15 07:30 K05U 150730Z AUTO 00000KT 10SM 12/07 A3035 RMK A01
KP68 - Eureka, Nevada, USA
Distance from station: ENE 203mi, 326km
Updated: Mon, 15-Jul-2024 12:53am MDT

 Wind from S
Wind: S 7 mph, 11 km/h
Temperature: 55°F, 13°C
Dew Point: 45°F, 7°C
Humidity: 67%
Barometer: 30.33 inHg, 1027.1 hPa
2024/07/15 06:53 KP68 150653Z AUTO 18006KT 13/07 A3033 RMK AO1 SLP185 T01280072
 
KMRY - Monterey, California, USA
Distance from station: SW 206mi, 331km
Updated: Mon, 15-Jul-2024 12:54am MDT
Overcast
Overcast
 Wind from SW
Wind: SW 3 mph, 6 km/h
Temperature: 57°F, 14°C
Dew Point: 54°F, 12°C
Humidity: 88%
Barometer: 30.07 inHg, 1018.3 hPa
Clouds: Overcast
Visibility: 10 miles, 16 km
Cloud details: Overcast 900 ft
2024/07/15 06:54 KMRY 150654Z AUTO 22003KT 10SM OVC009 14/12 A3007 RMK AO2 SLP193 T01390117
KO54 - Weaverville, California, USA
Distance from station: NW 207mi, 332km
Updated: Mon, 15-Jul-2024 1:35am MDT
Clear
Clear
 Wind from calm
Wind: Calm
Temperature: 68°F, 20°C
Dew Point: 54°F, 12°C
Humidity: 60%
Barometer: 30.09 inHg, 1019 hPa
Clouds: Clear
Visibility: 10 miles, 16 km
2024/07/15 07:35 KO54 150735Z AUTO 00000KT 10SM CLR 20/12 A3009 RMK A01
 
KO86 - Trinity Center, California, USA
Distance from station: NW 207mi, 333km
Updated: Mon, 15-Jul-2024 1:30am MDT
Clear
Clear
 Wind from NNE
Wind: NNE 3 mph, 6 km/h
Temperature: 68°F, 20°C
Dew Point: 59°F, 15°C
Humidity: 73%
Barometer: 30.10 inHg, 1019.3 hPa
Clouds: Clear
Visibility: 10 miles, 16 km
2024/07/15 07:30 KO86 150730Z AUTO 03003KT 10SM CLR 20/15 A3010 RMK A01
KMHS - Mount Shasta, California, USA
Distance from station: NW 209mi, 336km
Updated: Mon, 15-Jul-2024 12:56am MDT
Clear
Clear
 Wind from calm
Wind: Calm
Temperature: 63°F, 17°C
Dew Point: 52°F, 11°C
Humidity: 68%
Barometer: 30.16 inHg, 1021.3 hPa
Clouds: Clear
Visibility: 10 miles, 16 km
2024/07/15 06:56 KMHS 150656Z AUTO 00000KT 10SM CLR 17/11 A3016 RMK AO2 SLP195 T01720106
 
KPTV - Porterville, California, USA
Distance from station: S 212mi, 341km
Updated: Mon, 15-Jul-2024 12:56am MDT
Clear
Clear
 Wind from SE
Wind: SE 7 mph, 11 km/h
Temperature: 82°F, 28°C
Dew Point: 52°F, 11°C
Humidity: 35%
Barometer: 29.95 inHg, 1014.2 hPa
Clouds: Clear
Visibility: 10 miles, 16 km
2024/07/15 06:56 KPTV 150656Z AUTO 13006KT 10SM CLR 28/11 A2995 RMK AO2 SLP137 T02830106 403940228
KLKV - Lakeview, Oregon, USA
Distance from station: N 219mi, 353km
Updated: Mon, 15-Jul-2024 12:53am MDT
Clear
Clear
 Wind from calm
Wind: Calm
Temperature: 57°F, 14°C
Dew Point: 52°F, 11°C
Humidity: 82%
Barometer: 30.25 inHg, 1024.4 hPa
Clouds: Clear
Visibility: 10 miles, 16 km
2024/07/15 06:53 KLKV 150653Z AUTO 00000KT 10SM CLR 14/11 A3025 RMK AO2 SLP202 T01440111
 
KSIY - Montague/Siskiyo, California, USA
Distance from station: NW 237mi, 382km
Updated: Mon, 15-Jul-2024 12:53am MDT
Clear
Clear
 Wind from calm
Wind: Calm
Temperature: 73°F, 23°C
Dew Point: 48°F, 9°C
Humidity: 41%
Barometer: 30.09 inHg, 1019 hPa
Clouds: Clear
Visibility: 10 miles, 16 km
2024/07/15 06:53 KSIY 150653Z AUTO 00000KT 10SM CLR 23/09 A3009 RMK AO2 SLP169 T02280094
KPRB - Paso Robles, California, USA
Distance from station: SSW 238mi, 383km
Updated: Mon, 15-Jul-2024 12:53am MDT
Clear
Clear
 Wind from WNW
Wind: WNW 7 mph, 11 km/h
Temperature: 63°F, 17°C
Dew Point: 54°F, 12°C
Humidity: 73%
Barometer: 30.07 inHg, 1018.3 hPa
Clouds: Clear
Visibility: 10 miles, 16 km
2024/07/15 06:53 KPRB 150653Z AUTO 30006KT 10SM CLR 17/12 A3007 RMK AO2 SLP176 T01670117 $
 
KLMT - Klamath Falls, Oregon, USA
Distance from station: NNW 239mi, 385km
Updated: Mon, 15-Jul-2024 12:53am MDT
Clear
Clear
 Wind from calm
Wind: Calm
Temperature: 68°F, 20°C
Dew Point: 55°F, 13°C
Humidity: 64%
Barometer: 30.18 inHg, 1022 hPa
Clouds: Clear
Visibility: 10 miles, 16 km
2024/07/15 06:53 KLMT 150653Z AUTO 00000KT 10SM CLR 20/13 A3018 RMK AO2 SLP168 T02000133
KEKO - Elko, Nevada, USA
Distance from station: ENE 242mi, 390km
Updated: Mon, 15-Jul-2024 12:56am MDT
Clear
Clear
 Wind from WNW
Wind: WNW 5 mph, 7 km/h
Temperature: 64°F, 18°C
Dew Point: 52°F, 11°C
Humidity: 64%
Barometer: 30.27 inHg, 1025.1 hPa
Clouds: Clear
Visibility: 10 miles, 16 km
2024/07/15 06:56 KEKO 150656Z AUTO 29004KT 10SM CLR 18/11 A3027 RMK AO2 SLP186 T01780111
 
KBFL - Bakersfield, California, USA
Distance from station: S 252mi, 405km
Updated: Mon, 15-Jul-2024 12:54am MDT
Clear
Clear
 Wind from N
Wind: N 8 mph, 13 km/h
Temperature: 90°F, 32°C
Dew Point: 37°F, 3°C
Humidity: 16%
Barometer: 29.94 inHg, 1013.9 hPa
Clouds: Clear
Visibility: 10 miles, 16 km
2024/07/15 06:54 KBFL 150654Z AUTO 01007KT 10SM CLR 32/03 A2994 RMK AO2 SLP131 T03220028
KFOT - Fortuna, California, USA
Distance from station: WNW 256mi, 413km
Updated: Mon, 15-Jul-2024 12:55am MDT
Clear
Clear
 Wind from calm
Wind: Calm
Temperature: 46°F, 8°C
Dew Point: 46°F, 8°C
Humidity: 100%
Barometer: 30.05 inHg, 1017.6 hPa
Clouds: Clear
Visibility: 1 mile, 2 km
2024/07/15 06:55 KFOT 150655Z AUTO 00000KT 1SM CLR 08/08 A3005 RMK AO1
 
KNID - China Lake (naf), California, USA
Distance from station: SSE 259mi, 417km
Updated: Mon, 15-Jul-2024 12:56am MDT
Clear
Clear
 
Temperature: 82°F, 28°C
Heat Index: 82°F, 28°C
Dew Point: 59°F, 15°C
Humidity: 45%
Barometer: 30.04 inHg, 1017.3 hPa
Clouds: Clear
Visibility: 10 miles, 16 km
2024/07/15 06:56 KNID 150656Z AUTO 10SM CLR 28/15 A3004 RMK AO2 SLP147 T02780150 $
KDRA - Desert R/Mercury, Nevada, USA
Distance from station: SE 262mi, 421km
Updated: Mon, 15-Jul-2024 12:53am MDT
Clear
Clear
 Wind from calm
Wind: Calm
Temperature: 84°F, 29°C
Dew Point: 46°F, 8°C
Humidity: 27%
Barometer: 30.10 inHg, 1019.3 hPa
Clouds: Clear
Visibility: 10 miles, 16 km
2024/07/15 06:53 KDRA 150653Z AUTO 00000KT 10SM CLR 29/08 A3010 RMK AO2 SLP133 T02940083
 
KELY - Ely, Nevada, USA
Distance from station: E 262mi, 421km
Updated: Mon, 15-Jul-2024 12:53am MDT
Clear
Clear
 Wind from W
Wind: W 7 mph, 11 km/h
Temperature: 63°F, 17°C
Dew Point: 43°F, 6°C
Humidity: 49%
Barometer: 30.33 inHg, 1027.1 hPa
Clouds: Clear
Visibility: 10 miles, 16 km
2024/07/15 06:53 KELY 150653Z AUTO 28006KT 10SM CLR 17/06 A3033 RMK AO2 SLP156 T01670056
KREO - Rome, Oregon, USA
Distance from station: NNE 263mi, 424km
Updated: Mon, 15-Jul-2024 12:52am MDT

 Wind from W
Wind: W 3 mph, 6 km/h
Temperature: 68°F, 20°C
Dew Point: 52°F, 11°C
Humidity: 56%
Barometer: 30.16 inHg, 1021.3 hPa
2024/07/15 06:52 KREO 150652Z AUTO 27003KT 20/11 A3016 RMK AO1 SLP165 T02000106 403440194
 
KACV - Arcata/Eureka, California, USA
Distance from station: WNW 268mi, 431km
Updated: Mon, 15-Jul-2024 1:25am MDT
Fog, Overcast
Fog, Overcast
 Wind from N
Wind: N 3 mph, 6 km/h
Temperature: 48°F, 9°C
Dew Point: 48°F, 9°C
Humidity: 100%
Barometer: 30.05 inHg, 1017.6 hPa
Summary: Fog
Clouds: Overcast
Visibility: 1/4 mile, 0.4 km
Cloud details: Overcast 100 ft
2024/07/15 07:25 KACV 150725Z AUTO 01003KT 1/4SM R32/2400V3500FT FG VV001 09/09 A3005 RMK AO2 T00940089
KSBP - San Luis Obispo, California, USA
Distance from station: S 268mi, 431km
Updated: Mon, 15-Jul-2024 12:56am MDT
Mostly cloudy
Mostly cloudy
 Wind from NW
Wind: NW 9 mph, 15 km/h
Temperature: 61°F, 16°C
Dew Point: 54°F, 12°C
Humidity: 77%
Barometer: 30.05 inHg, 1017.6 hPa
Clouds: Mostly cloudy
Visibility: 10 miles, 16 km
Cloud details: Mostly cloudy 700 ft
2024/07/15 06:56 KSBP 150656Z 31008KT 10SM BKN007 16/12 A3005 RMK AO2 SLP174 T01560122
 
KINS - Indian Springs, Nevada, USA
Distance from station: SE 279mi, 449km
Updated: Mon, 15-Jul-2024 12:55am MDT
Overcast
Overcast
 Wind from NW
Wind: NW 3 mph, 6 km/h
Temperature: 90°F, 32°C
Dew Point: 45°F, 7°C
Humidity: 21%
Barometer: 30.09 inHg, 1019 hPa
Clouds: Overcast
Visibility: 10 miles, 16 km
Cloud details: Overcast 17000 ft
2024/07/15 06:55 KINS 150655Z AUTO 32003KT 10SM OVC170 32/07 A3009 RMK AO2 SLP126 T03150065 $
KTSP - Tehachapi, California, USA
Distance from station: SSE 279mi, 449km
Updated: Mon, 15-Jul-2024 1:35am MDT
Clear
Clear
 Wind from SSE
Wind: SSE 3 mph, 6 km/h
Temperature: 68°F, 20°C
Dew Point: 50°F, 10°C
Humidity: 53%
Barometer: 30.21 inHg, 1023 hPa
Clouds: Clear
Visibility: 8 miles, 13 km
2024/07/15 07:35 KTSP 150735Z AUTO 15003KT 8SM CLR 20/10 A3021 RMK AO2
 
KMFR - Medford, Oregon, USA
Distance from station: NW 284mi, 457km
Updated: Mon, 15-Jul-2024 12:53am MDT
Clear
Clear
 Wind from NNW
Wind: NNW 5 mph, 7 km/h
Temperature: 81°F, 27°C
Dew Point: 52°F, 11°C
Humidity: 37%
Barometer: 30.01 inHg, 1016.3 hPa
Clouds: Clear
Visibility: 10 miles, 16 km
2024/07/15 06:53 KMFR 150653Z AUTO 34004KT 10SM CLR 27/11 A3001 RMK AO2 SLP148 T02720111 $
KMHV - Mojave, California, USA
Distance from station: SSE 288mi, 463km
Updated: Mon, 15-Jul-2024 1:20am MDT
Overcast
Overcast
 Wind from SSW
Wind: SSW 7 mph, 11 km/h
Temperature: 81°F, 27°C
Dew Point: 52°F, 11°C
Humidity: 37%
Barometer: 30.10 inHg, 1019.3 hPa
Clouds: Overcast
Visibility: 10 miles, 16 km
Cloud details: Partly cloudy 4100 ft
Overcast 4800 ft
2024/07/15 07:20 KMHV 150720Z AUTO 20006KT 10SM SCT041 OVC048 27/11 A3010 RMK AO2
 
KSMX - Santa Maria, California, USA
Distance from station: S 289mi, 465km
Updated: Mon, 15-Jul-2024 12:51am MDT
Partly cloudy
Partly cloudy
 Wind from calm
Wind: Calm
Temperature: 57°F, 14°C
Dew Point: 55°F, 13°C
Humidity: 94%
Barometer: 30.06 inHg, 1017.9 hPa
Clouds: Partly cloudy
Visibility: 10 miles, 16 km
Cloud details: Partly cloudy 900 ft
2024/07/15 06:51 KSMX 150651Z AUTO 00000KT 10SM SCT009 14/13 A3006 RMK AO2 SLP180 T01390133
K9L2 - Edwards N-Aux, California, USA
Distance from station: SSE 299mi, 482km
Updated: Mon, 15-Jul-2024 12:55am MDT
Clear
Clear
 Wind from SW
Wind: SW 3 mph, 6 km/h
Temperature: 79°F, 26°C
Dew Point: 57°F, 14°C
Humidity: 48%
Barometer: 30.05 inHg, 1017.6 hPa
Clouds: Clear
Visibility: 9 miles, 14 km
2024/07/15 06:55 K9L2 150655Z AUTO 23003KT 9SM CLR 26/14 A3005 RMK AO2 SLP146 T02620140
CoCoRaHS (Community Collaborative Rain, Hail and Snow Network) Station Number: ID-GM-5 Live Lightning Map - USA Boise Skywarn Spotter ID: DO21 AlertID Southwestern Weather Network
Northwestern Weather Network


National Sex Offender Public Website

National Sex Offender Public Website





(Click on the Flag Counter logo below for details in new browser tab)
Flag Counter